createdAt,value
2023-04-28T00:01:28.993Z,13.45
2023-04-28T00:03:57.041Z,11.55
2023-04-28T00:06:23.944Z,8.95
2023-04-28T00:08:50.648Z,10.30
2023-04-28T00:11:17.338Z,9.93
2023-04-28T00:13:44.158Z,9.13
2023-04-28T00:16:11.030Z,9.13
2023-04-28T00:18:37.736Z,11.60
2023-04-28T00:21:04.697Z,10.05
2023-04-28T00:23:31.334Z,10.60
2023-04-28T00:25:58.146Z,12.55
2023-04-28T00:30:54.366Z,10.05
2023-04-28T00:33:21.108Z,10.45
2023-04-28T00:35:47.755Z,9.13
2023-04-28T00:38:14.422Z,8.15
2023-04-28T00:40:41.190Z,8.73
2023-04-28T00:43:07.843Z,8.77
2023-04-28T00:45:34.918Z,8.70
2023-04-28T00:48:02.651Z,9.05
2023-04-28T00:50:29.376Z,10.60
2023-04-28T00:52:56.253Z,10.50
2023-04-28T00:55:24.964Z,8.95
2023-04-28T00:57:51.787Z,11.38
2023-04-28T01:00:18.516Z,7.82
2023-04-28T01:02:45.278Z,8.35
2023-04-28T01:05:13.682Z,9.52
2023-04-28T01:07:40.352Z,10.70
2023-04-28T01:10:07.825Z,8.77
2023-04-28T01:12:34.474Z,9.27
2023-04-28T01:15:01.655Z,10.02
2023-04-28T01:17:28.362Z,7.65
2023-04-28T01:19:55.896Z,7.68
2023-04-28T01:22:22.628Z,9.00
2023-04-28T01:24:49.330Z,6.78
2023-04-28T01:27:16.678Z,7.90
2023-04-28T01:29:43.408Z,7.38
2023-04-28T01:32:10.119Z,7.15
2023-04-28T01:34:36.933Z,6.68
2023-04-28T01:37:03.615Z,7.03
2023-04-28T01:39:30.429Z,6.75
2023-04-28T01:41:57.110Z,7.82
2023-04-28T01:44:23.748Z,7.75
2023-04-28T01:46:50.518Z,7.40
2023-04-28T01:49:17.193Z,9.15
2023-04-28T01:51:43.839Z,6.55
2023-04-28T01:54:11.259Z,6.38
2023-04-28T01:56:37.944Z,5.45
2023-04-28T01:59:04.581Z,6.80
2023-04-28T02:01:31.385Z,7.18
2023-04-28T02:03:58.253Z,8.35
2023-04-28T02:06:25.042Z,7.25
2023-04-28T02:08:51.917Z,8.40
2023-04-28T02:11:18.550Z,8.07
2023-04-28T02:13:45.247Z,9.27
2023-04-28T02:16:12.031Z,9.40
2023-04-28T02:18:38.722Z,7.85
2023-04-28T02:21:12.431Z,8.15
2023-04-28T02:23:40.245Z,7.43
2023-04-28T02:26:06.929Z,9.52
2023-04-28T02:28:33.598Z,9.52
2023-04-28T02:31:08.081Z,6.88
2023-04-28T02:33:35.545Z,8.40
2023-04-28T02:36:03.386Z,9.23
2023-04-28T02:38:30.464Z,9.55
2023-04-28T02:41:01.303Z,8.48
2023-04-28T02:43:28.998Z,13.52
2023-04-28T02:45:55.913Z,9.73
2023-04-28T02:48:23.011Z,10.20
2023-04-28T02:50:49.905Z,8.63
2023-04-28T02:53:16.821Z,8.60
2023-04-28T02:55:43.471Z,9.32
2023-04-28T02:58:10.249Z,10.23
2023-04-28T03:00:36.969Z,10.50
2023-04-28T03:03:04.021Z,6.82
2023-04-28T03:05:31.000Z,8.52
2023-04-28T03:07:57.755Z,8.02
2023-04-28T03:10:24.544Z,10.52
2023-04-28T03:12:51.564Z,8.82
2023-04-28T03:15:18.353Z,6.88
2023-04-28T03:17:45.191Z,8.85
2023-04-28T03:20:13.057Z,9.45
2023-04-28T03:22:40.042Z,9.38
2023-04-28T03:25:06.917Z,9.27
2023-04-28T03:27:33.648Z,8.60
2023-04-28T03:30:00.392Z,9.20
2023-04-28T03:32:27.024Z,7.40
2023-04-28T03:34:53.737Z,6.55
2023-04-28T03:37:20.460Z,6.78
2023-04-28T03:39:47.117Z,7.93
2023-04-28T03:42:13.833Z,8.52
2023-04-28T03:44:40.561Z,8.10
2023-04-28T03:47:07.354Z,9.30
2023-04-28T03:49:34.017Z,8.38
2023-04-28T03:52:00.703Z,8.43
2023-04-28T03:54:27.353Z,6.28
2023-04-28T03:56:54.005Z,9.18
2023-04-28T03:59:21.169Z,7.38
2023-04-28T04:01:47.845Z,9.18
2023-04-28T04:04:14.886Z,9.23
2023-04-28T04:06:41.850Z,11.35
2023-04-28T04:09:08.901Z,9.07
2023-04-28T04:11:35.573Z,12.98
2023-04-28T04:14:02.495Z,9.45
2023-04-28T04:16:29.489Z,9.75
2023-04-28T04:18:56.422Z,11.07
2023-04-28T04:21:23.166Z,10.05
2023-04-28T04:23:49.871Z,10.98
2023-04-28T04:26:16.576Z,9.27
2023-04-28T04:28:43.272Z,12.15
2023-04-28T04:31:09.938Z,11.48
2023-04-28T04:33:37.733Z,7.68
2023-04-28T04:36:05.156Z,11.70
2023-04-28T04:38:31.910Z,12.48
2023-04-28T04:40:58.563Z,11.15
2023-04-28T04:43:25.446Z,10.32
2023-04-28T04:45:52.156Z,12.55
2023-04-28T04:48:18.911Z,11.23
2023-04-28T04:50:45.705Z,9.52
2023-04-28T04:53:16.052Z,13.05
2023-04-28T04:55:43.349Z,12.77
2023-04-28T04:58:10.222Z,13.57
2023-04-28T05:00:40.027Z,13.80
2023-04-28T05:03:10.096Z,13.30
2023-04-28T05:05:36.844Z,10.73
2023-04-28T05:08:03.800Z,11.50
2023-04-28T05:10:30.485Z,13.13
2023-04-28T05:12:57.251Z,11.85
2023-04-28T05:15:23.948Z,17.65
2023-04-28T05:17:50.774Z,15.10
2023-04-28T05:20:17.496Z,12.43
2023-04-28T05:22:44.152Z,15.32
2023-04-28T05:25:10.795Z,11.43
2023-04-28T05:27:39.551Z,15.00
2023-04-28T05:30:08.245Z,12.88
2023-04-28T05:32:36.137Z,15.18
2023-04-28T05:35:03.562Z,12.00
2023-04-28T05:37:30.178Z,13.45
2023-04-28T05:39:56.848Z,11.18
2023-04-28T05:42:23.526Z,13.05
2023-04-28T05:44:50.155Z,13.20
2023-04-28T05:47:16.879Z,13.13
2023-04-28T05:49:43.527Z,9.63
2023-04-28T05:52:10.214Z,13.38
2023-04-28T05:54:36.868Z,14.63
2023-04-28T05:57:03.726Z,12.80
2023-04-28T05:59:31.592Z,14.65
2023-04-28T06:01:58.385Z,13.52
2023-04-28T06:04:26.619Z,14.52
2023-04-28T06:06:53.605Z,15.30
2023-04-28T06:09:20.418Z,12.55
2023-04-28T06:11:47.314Z,13.07
2023-04-28T06:14:14.222Z,16.30
2023-04-28T06:16:41.121Z,13.77
2023-04-28T06:19:07.879Z,14.05
2023-04-28T06:21:34.547Z,11.45
2023-04-28T06:24:02.098Z,14.35
2023-04-28T06:26:29.445Z,14.60
2023-04-28T06:28:56.517Z,11.38
2023-04-28T06:31:23.278Z,14.82
2023-04-28T06:33:50.184Z,15.00
2023-04-28T06:36:17.967Z,17.10
2023-04-28T06:38:45.342Z,16.98
2023-04-28T06:41:12.259Z,11.48
2023-04-28T06:43:38.940Z,10.55
2023-04-28T06:46:05.825Z,16.27
2023-04-28T06:48:32.606Z,12.55
2023-04-28T06:50:59.284Z,16.30
2023-04-28T06:53:25.921Z,15.68
2023-04-28T06:55:52.936Z,13.77
2023-04-28T06:58:21.066Z,14.55
2023-04-28T07:00:48.035Z,12.95
2023-04-28T07:03:14.819Z,12.02
2023-04-28T07:05:41.611Z,14.48
2023-04-28T07:08:08.264Z,14.95
2023-04-28T07:10:34.962Z,13.90
2023-04-28T07:13:02.960Z,16.30
2023-04-28T07:15:29.889Z,13.30
2023-04-28T07:17:56.635Z,12.55
2023-04-28T07:20:23.364Z,15.50
2023-04-28T07:22:50.059Z,16.08
2023-04-28T07:25:16.764Z,18.52
2023-04-28T07:27:43.437Z,15.48
2023-04-28T07:30:25.812Z,16.70
2023-04-28T07:32:53.919Z,16.73
2023-04-28T07:35:20.606Z,12.63
2023-04-28T07:37:47.408Z,17.80
2023-04-28T07:40:14.273Z,18.42
2023-04-28T07:42:41.226Z,15.98
2023-04-28T07:45:08.585Z,16.45
2023-04-28T07:47:35.666Z,17.52
2023-04-28T07:50:05.267Z,19.13
2023-04-28T07:52:33.184Z,18.55
2023-04-28T07:55:00.215Z,13.07
2023-04-28T07:57:27.153Z,17.27
2023-04-28T07:59:53.891Z,15.20
2023-04-28T08:02:21.030Z,17.67
2023-04-28T08:04:47.953Z,16.83
2023-04-28T08:07:14.936Z,17.08
2023-04-28T08:09:44.208Z,23.88
2023-04-28T08:12:10.931Z,19.52
2023-04-28T08:14:37.590Z,17.13
2023-04-28T08:17:04.343Z,18.65
2023-04-28T08:19:31.264Z,15.52
2023-04-28T08:21:58.055Z,17.65
2023-04-28T08:24:24.749Z,13.93
2023-04-28T08:26:52.145Z,18.67
2023-04-28T08:29:18.821Z,18.63
2023-04-28T08:31:45.813Z,17.98
2023-04-28T08:34:14.015Z,18.38
2023-04-28T08:36:42.622Z,16.88
2023-04-28T08:39:11.108Z,22.75
2023-04-28T08:41:42.233Z,20.50
2023-04-28T08:44:10.062Z,17.55
2023-04-28T08:46:42.353Z,15.15
2023-04-28T08:49:17.082Z,17.03
2023-04-28T08:51:55.615Z,23.23
2023-04-28T08:54:26.964Z,19.42
2023-04-28T08:56:55.719Z,19.73
2023-04-28T08:59:22.814Z,18.50
2023-04-28T09:01:50.611Z,26.13
2023-04-28T09:04:18.608Z,26.85
2023-04-28T09:06:46.634Z,22.58
2023-04-28T09:09:25.378Z,20.30
2023-04-28T09:11:52.365Z,19.40
2023-04-28T09:14:19.210Z,19.10
2023-04-28T09:16:46.332Z,19.65
2023-04-28T09:19:13.209Z,19.55
2023-04-28T09:21:53.860Z,16.33
2023-04-28T09:24:31.900Z,23.27
2023-04-28T09:27:04.468Z,20.63
2023-04-28T09:29:32.112Z,27.75
2023-04-28T09:32:22.262Z,26.10
2023-04-28T09:34:51.529Z,26.58
2023-04-28T09:37:23.488Z,21.52
2023-04-28T09:39:51.859Z,22.48
2023-04-28T09:42:42.675Z,19.73
2023-04-28T09:45:11.349Z,20.73
2023-04-28T09:47:42.005Z,21.67
2023-04-28T09:50:12.830Z,27.35
2023-04-28T09:52:41.512Z,21.80
2023-04-28T09:55:08.989Z,25.92
2023-04-28T09:57:36.597Z,19.25
2023-04-28T10:00:09.560Z,24.15
2023-04-28T10:05:10.041Z,20.55
2023-04-28T10:07:37.718Z,20.95
2023-04-28T10:10:05.605Z,25.58
2023-04-28T10:12:33.173Z,24.95
2023-04-28T10:15:00.528Z,27.38
2023-04-28T10:17:29.794Z,31.63
2023-04-28T10:19:57.285Z,27.45
2023-04-28T10:22:42.441Z,25.75
2023-04-28T10:25:12.185Z,23.38
2023-04-28T10:27:41.205Z,30.15
2023-04-28T10:30:27.547Z,21.05
2023-04-28T10:33:14.326Z,26.27
2023-04-28T10:35:47.978Z,30.75
2023-04-28T10:38:14.944Z,21.30
2023-04-28T10:40:42.678Z,30.98
2023-04-28T10:43:11.256Z,28.17
2023-04-28T10:45:56.274Z,32.88
2023-04-28T10:48:46.564Z,24.52
2023-04-28T10:51:16.580Z,27.27
2023-04-28T10:53:47.169Z,19.73
2023-04-28T10:56:25.608Z,21.10
2023-04-28T10:58:56.210Z,19.55
2023-04-28T11:01:24.910Z,18.45
2023-04-28T11:04:00.943Z,22.33
2023-04-28T11:06:40.345Z,22.65
2023-04-28T11:09:14.120Z,24.75
2023-04-28T11:12:05.706Z,23.27
2023-04-28T11:14:36.488Z,20.50
2023-04-28T11:17:05.110Z,21.83
2023-04-28T11:19:34.593Z,23.05
2023-04-28T11:22:03.123Z,22.45
2023-04-28T11:24:31.091Z,18.60
2023-04-28T11:26:59.218Z,22.42
2023-04-28T11:29:40.182Z,21.77
2023-04-28T11:32:10.441Z,25.25
2023-04-28T11:34:37.903Z,25.00
2023-04-28T11:37:07.269Z,26.27
2023-04-28T11:39:34.699Z,26.17
2023-04-28T11:42:09.202Z,20.13
2023-04-28T11:44:35.933Z,18.77
2023-04-28T11:47:04.310Z,24.27
2023-04-28T11:49:41.639Z,26.27
2023-04-28T11:52:09.347Z,21.33
2023-04-28T11:54:37.591Z,19.13
2023-04-28T11:57:05.868Z,24.75
2023-04-28T11:59:34.575Z,21.48
2023-04-28T12:02:03.939Z,20.10
2023-04-28T12:04:41.873Z,23.55
2023-04-28T12:07:16.363Z,24.52
2023-04-28T12:09:46.947Z,23.85
2023-04-28T12:12:45.189Z,22.20
2023-04-28T12:15:18.034Z,20.83
2023-04-28T12:17:46.326Z,18.27
2023-04-28T12:20:37.559Z,19.92
2023-04-28T12:23:05.610Z,19.00
2023-04-28T12:25:34.082Z,17.48
2023-04-28T12:28:07.999Z,17.90
2023-04-28T12:30:42.144Z,18.13
2023-04-28T12:33:26.102Z,18.55
2023-04-28T12:35:55.201Z,22.33
2023-04-28T12:38:22.769Z,16.20
2023-04-28T12:40:49.504Z,18.73
2023-04-28T12:43:16.160Z,25.38
2023-04-28T12:45:43.450Z,17.20
2023-04-28T12:48:10.374Z,13.43
2023-04-28T12:50:37.066Z,17.55
2023-04-28T12:53:03.768Z,15.35
2023-04-28T12:55:30.594Z,14.77
2023-04-28T12:57:57.625Z,15.43
2023-04-28T13:00:25.198Z,21.45
2023-04-28T13:02:53.223Z,17.15
2023-04-28T13:05:20.132Z,17.00
2023-04-28T13:07:47.797Z,17.33
2023-04-28T13:10:14.548Z,15.82
2023-04-28T13:12:41.660Z,13.55
2023-04-28T13:15:09.226Z,15.65
2023-04-28T13:17:36.171Z,12.60
2023-04-28T13:20:05.643Z,19.27
2023-04-28T13:22:32.425Z,15.60
2023-04-28T13:24:59.160Z,21.73
2023-04-28T13:27:26.030Z,23.65
2023-04-28T13:29:52.847Z,18.33
2023-04-28T13:32:19.560Z,18.38
2023-04-28T13:34:46.838Z,16.52
2023-04-28T13:37:13.866Z,18.45
2023-04-28T13:39:40.634Z,19.95
2023-04-28T13:42:07.344Z,18.95
2023-04-28T13:44:34.050Z,16.83
2023-04-28T13:47:00.961Z,13.30
2023-04-28T13:49:28.151Z,13.57
2023-04-28T13:51:54.809Z,15.27
2023-04-28T13:54:21.948Z,15.20
2023-04-28T13:56:48.712Z,13.73
2023-04-28T13:59:15.416Z,7.85
2023-04-28T14:01:42.314Z,6.70
2023-04-28T14:04:09.357Z,7.28
2023-04-28T14:06:37.684Z,5.05
2023-04-28T14:09:04.537Z,5.00
2023-04-28T14:11:31.187Z,5.43
2023-04-28T14:13:57.865Z,5.97
2023-04-28T14:16:24.732Z,4.97
2023-04-28T14:18:51.912Z,7.05
2023-04-28T14:21:18.671Z,4.97
2023-04-28T14:23:45.371Z,5.25
2023-04-28T14:26:12.180Z,4.25
2023-04-28T14:28:38.889Z,4.80
2023-04-28T14:31:09.322Z,4.70
2023-04-28T14:33:36.886Z,3.22
2023-04-28T14:36:04.128Z,3.85
2023-04-28T14:38:31.298Z,3.90
2023-04-28T14:40:58.289Z,5.25
2023-04-28T14:43:25.102Z,3.65
2023-04-28T14:45:52.261Z,3.75
2023-04-28T14:48:19.705Z,3.17
2023-04-28T14:50:46.897Z,5.20
2023-04-28T14:53:13.618Z,3.40
2023-04-28T14:55:40.527Z,6.22
2023-04-28T14:58:07.571Z,7.75
2023-04-28T15:00:36.094Z,8.38
2023-04-28T15:03:03.123Z,8.80
2023-04-28T15:05:29.898Z,7.53
2023-04-28T15:07:56.902Z,7.22
2023-04-28T15:10:23.651Z,5.72
2023-04-28T15:12:50.649Z,8.15
2023-04-28T15:15:17.375Z,12.10
2023-04-28T15:17:45.144Z,8.40
2023-04-28T15:20:11.970Z,8.13
2023-04-28T15:22:38.754Z,7.28
2023-04-28T15:25:06.033Z,10.57
2023-04-28T15:27:32.780Z,10.15
2023-04-28T15:29:59.533Z,10.93
2023-04-28T15:32:27.281Z,10.48
2023-04-28T15:34:55.123Z,10.93
2023-04-28T15:37:52.117Z,11.57
2023-04-28T15:40:20.106Z,11.68
2023-04-28T15:42:51.839Z,11.30
2023-04-28T15:45:22.603Z,9.50
2023-04-28T15:47:50.926Z,9.07
2023-04-28T15:50:19.832Z,11.05
2023-04-28T15:52:47.672Z,10.93
2023-04-28T15:55:15.781Z,10.45
2023-04-28T15:57:43.279Z,10.75
2023-04-28T16:00:11.400Z,12.68
2023-04-28T16:02:39.409Z,13.23
2023-04-28T16:05:06.876Z,9.85
2023-04-28T16:07:42.348Z,9.75
2023-04-28T16:10:09.957Z,9.95
2023-04-28T16:12:37.099Z,11.85
2023-04-28T16:15:04.226Z,10.45
2023-04-28T16:17:31.130Z,11.85
2023-04-28T16:19:57.934Z,10.52
2023-04-28T16:22:25.428Z,15.07
2023-04-28T16:24:53.876Z,13.25
2023-04-28T16:27:20.942Z,12.27
2023-04-28T16:29:47.664Z,9.55
2023-04-28T16:32:14.512Z,5.72
2023-04-28T16:34:41.531Z,3.45
2023-04-28T16:37:08.413Z,2.95
2023-04-28T16:39:35.070Z,2.55
2023-04-28T16:42:01.993Z,2.63
2023-04-28T16:44:28.897Z,2.60
2023-04-28T16:47:00.755Z,2.75
2023-04-28T16:49:27.675Z,2.35
2023-04-28T16:52:02.168Z,1.85
2023-04-28T16:54:30.142Z,2.33
2023-04-28T16:57:02.570Z,2.40
2023-04-28T16:59:33.977Z,3.10
2023-04-28T17:02:04.930Z,6.85
2023-04-28T17:04:32.051Z,4.95
2023-04-28T17:06:59.287Z,13.13
2023-04-28T17:09:26.393Z,12.00
2023-04-28T17:11:53.258Z,8.50
2023-04-28T17:14:20.140Z,4.00
2023-04-28T17:16:47.273Z,2.85
2023-04-28T17:19:14.538Z,2.72
2023-04-28T17:21:41.458Z,2.20
2023-04-28T17:24:09.026Z,2.08
2023-04-28T17:26:36.486Z,2.15
2023-04-28T17:29:04.120Z,2.13
2023-04-28T17:31:31.431Z,2.58
2023-04-28T17:33:59.889Z,2.35
2023-04-28T17:36:27.396Z,2.30
2023-04-28T17:38:55.036Z,2.33
2023-04-28T17:41:22.932Z,1.98
2023-04-28T17:43:51.848Z,2.20
2023-04-28T17:46:19.142Z,2.10
2023-04-28T17:48:45.964Z,2.15
2023-04-28T17:51:12.775Z,2.67
2023-04-28T17:53:39.725Z,4.53
2023-04-28T17:56:06.853Z,6.57
2023-04-28T17:58:33.795Z,8.27
2023-04-28T18:01:04.971Z,4.35
2023-04-28T18:03:34.012Z,3.10
2023-04-28T18:06:01.460Z,2.08
2023-04-28T18:08:28.325Z,3.67
2023-04-28T18:10:55.858Z,3.38
2023-04-28T18:13:22.578Z,2.30
2023-04-28T18:15:49.471Z,1.95
2023-04-28T18:18:17.037Z,2.40
2023-04-28T18:20:43.995Z,2.17
2023-04-28T18:23:10.828Z,6.00
2023-04-28T18:25:37.794Z,2.55
2023-04-28T18:28:05.479Z,2.20
2023-04-28T18:30:38.091Z,2.65
2023-04-28T18:33:08.759Z,1.83
2023-04-28T18:35:37.039Z,2.35
2023-04-28T18:38:05.187Z,2.55
2023-04-28T18:40:33.333Z,2.17
2023-04-28T18:43:01.017Z,2.00
2023-04-28T18:45:32.381Z,1.98
2023-04-28T18:47:59.248Z,1.60
2023-04-28T18:50:26.088Z,1.88
2023-04-28T18:52:52.766Z,2.10
2023-04-28T18:55:19.670Z,2.13
2023-04-28T18:57:48.200Z,1.70
2023-04-28T19:00:16.439Z,1.83
2023-04-28T19:02:44.680Z,3.55
2023-04-28T19:05:12.755Z,3.17
2023-04-28T19:07:39.540Z,2.33
2023-04-28T19:10:07.109Z,1.75
2023-04-28T19:12:33.785Z,2.03
2023-04-28T19:15:01.132Z,2.30
2023-04-28T19:17:28.593Z,1.88
2023-04-28T19:19:56.675Z,2.60
2023-04-28T19:22:35.687Z,1.73
2023-04-28T19:25:04.165Z,3.72
2023-04-28T19:27:39.202Z,3.13
2023-04-28T19:30:09.006Z,2.50
2023-04-28T19:32:35.978Z,2.22
2023-04-28T19:35:04.561Z,1.90
2023-04-28T19:37:31.971Z,1.80
2023-04-28T19:39:58.841Z,2.13
2023-04-28T19:42:26.081Z,1.65
2023-04-28T19:44:58.103Z,1.83
2023-04-28T19:47:30.065Z,1.60
2023-04-28T19:50:00.707Z,1.60
2023-04-28T19:52:28.030Z,1.92
2023-04-28T19:54:54.983Z,1.67
2023-04-28T19:57:22.503Z,2.35
2023-04-28T19:59:49.841Z,1.67
2023-04-28T20:02:17.512Z,1.83
2023-04-28T20:04:45.265Z,1.60
2023-04-28T20:07:12.155Z,1.95
2023-04-28T20:09:39.281Z,1.60
2023-04-28T20:12:08.834Z,1.98
2023-04-28T20:14:37.179Z,1.98
2023-04-28T20:17:05.615Z,1.83
2023-04-28T20:19:32.385Z,2.40
2023-04-28T20:21:59.038Z,2.28
2023-04-28T20:24:25.925Z,1.80
2023-04-28T20:26:54.643Z,1.83
2023-04-28T20:29:21.546Z,2.05
2023-04-28T20:31:48.549Z,2.67
2023-04-28T20:34:15.445Z,1.75
2023-04-28T20:36:43.071Z,1.90
2023-04-28T20:39:11.906Z,1.70
2023-04-28T20:41:41.024Z,1.50
2023-04-28T20:44:08.242Z,1.85
2023-04-28T20:46:35.588Z,1.42
2023-04-28T20:49:03.001Z,1.70
2023-04-28T20:51:30.222Z,2.00
2023-04-28T20:53:57.737Z,1.73
2023-04-28T20:56:24.560Z,1.65
2023-04-28T20:58:51.576Z,2.20
2023-04-28T21:01:18.465Z,1.73
2023-04-28T21:03:45.570Z,4.82
2023-04-28T21:06:12.630Z,3.80
2023-04-28T21:08:40.906Z,2.78
2023-04-28T21:11:17.924Z,2.75
2023-04-28T21:13:45.888Z,2.05
2023-04-28T21:16:20.568Z,2.13
2023-04-28T21:18:48.304Z,2.17
2023-04-28T21:21:15.445Z,1.75
2023-04-28T21:23:43.234Z,1.52
2023-04-28T21:26:10.609Z,1.95
2023-04-28T21:28:37.635Z,2.63
2023-04-28T21:31:05.099Z,2.78
2023-04-28T21:33:32.328Z,1.98
2023-04-28T21:36:03.697Z,2.00
2023-04-28T21:38:30.413Z,2.58
2023-04-28T21:40:57.099Z,2.33
2023-04-28T21:43:24.213Z,1.52
2023-04-28T21:45:52.232Z,2.05
2023-04-28T21:48:19.050Z,2.40
2023-04-28T21:50:45.796Z,1.85
2023-04-28T21:53:12.488Z,1.90
2023-04-28T21:55:44.437Z,1.80
2023-04-28T21:58:11.703Z,2.20
2023-04-28T22:00:49.046Z,3.45
2023-04-28T22:03:16.404Z,1.80
2023-04-28T22:05:44.847Z,2.17
2023-04-28T22:08:12.822Z,1.88
2023-04-28T22:10:39.678Z,1.83
2023-04-28T22:13:07.005Z,1.45
2023-04-28T22:15:34.739Z,1.40
2023-04-28T22:18:05.642Z,1.50
2023-04-28T22:20:32.624Z,1.70
2023-04-28T22:22:59.438Z,1.33
2023-04-28T22:25:26.373Z,1.45
2023-04-28T22:27:53.025Z,1.60
2023-04-28T22:30:19.933Z,2.53
2023-04-28T22:32:47.376Z,1.90
2023-04-28T22:35:16.882Z,1.58
2023-04-28T22:37:43.810Z,2.30
2023-04-28T22:40:11.326Z,1.70
2023-04-28T22:42:39.746Z,1.92
2023-04-28T22:45:07.030Z,2.25
2023-04-28T22:47:34.739Z,1.40
2023-04-28T22:50:04.369Z,2.53
2023-04-28T22:52:31.772Z,2.42
2023-04-28T22:54:58.750Z,3.72
2023-04-28T22:57:25.660Z,2.33
2023-04-28T22:59:52.599Z,1.90
2023-04-28T23:02:19.812Z,2.20
2023-04-28T23:04:46.732Z,2.00
2023-04-28T23:07:13.477Z,1.92
2023-04-28T23:09:40.244Z,2.10
2023-04-28T23:12:07.292Z,2.38
2023-04-28T23:14:34.238Z,2.70
2023-04-28T23:17:00.944Z,1.95
2023-04-28T23:19:27.678Z,1.77
2023-04-28T23:21:54.589Z,1.90
2023-04-28T23:24:21.392Z,3.20
2023-04-28T23:26:48.454Z,2.20
2023-04-28T23:29:15.176Z,2.22
2023-04-28T23:31:41.900Z,2.28
2023-04-28T23:34:09.239Z,1.70
2023-04-28T23:36:36.852Z,2.03
2023-04-28T23:39:03.607Z,2.60
2023-04-28T23:41:30.561Z,2.03
2023-04-28T23:43:57.493Z,2.00
2023-04-28T23:46:24.196Z,2.35
2023-04-28T23:48:50.951Z,2.28
2023-04-28T23:51:17.646Z,2.30
2023-04-28T23:53:44.344Z,3.13
2023-04-28T23:56:11.215Z,2.72
2023-04-28T23:58:38.758Z,3.17
